Terminal Aerodrome Forecast
Issued by NWS

Home | Current Version | Previous Version | Text Only | Print | Product List | Glossary On
Versions: 1 2 3 4 5 6 7 8 9 10 11 12 13 14 15 16 17 18 19 20 21
000
FTUS46 KPQR 192320
TAFONP
TAF
KONP 192320Z 2000/2024 19015G25KT P6SM -SHRA SCT015 SCT025 BKN040
     FM200300 19012G20KT P6SM VCSH SCT025 BKN050
     FM200700 15012G20KT P6SM -RA OVC050
     FM201500 16012G20KT 5SM -RA OVC030
     FM201900 16010KT P6SM -SHRA BKN015 OVC025=

USA.gov is the U.S. government's official web portal to all federal, state and local government web resources and services.